Time;durP1;ratioP1;P1;durP2;ratioP2;P2;SDS_P1;SDS_P2;PMS_P1;PMS_P2;Temp;Humidity;BMP_temperature;BMP_pressure;BME280_temperature;BME280_humidity;BME280_pressure;Samples;Min_cycle;Max_cycle;Signal;HPM_P1;HPM_P2
2023/01/21 00:00:58;;;;;;;59.90;27.35;;;;;;;0.29;100.00;102112.34;5024330;28;20052;-75
2023/01/21 00:03:25;;;;;;;59.40;29.00;;;;;;;0.23;100.00;102116.28;5023267;28;20119;-73
2023/01/21 00:05:51;;;;;;;53.50;25.35;;;;;;;0.22;100.00;102120.06;5026555;28;20049;-72
2023/01/21 00:08:18;;;;;;;57.38;28.23;;;;;;;0.14;100.00;102116.13;5025556;28;20582;-74
2023/01/21 00:10:45;;;;;;;59.88;28.67;;;;;;;0.12;100.00;102126.47;5028433;28;20053;-75
2023/01/21 00:13:11;;;;;;;62.25;28.83;;;;;;;0.13;100.00;102130.81;5027341;28;20049;-72
2023/01/21 00:15:38;;;;;;;63.60;29.35;;;;;;;0.11;100.00;102137.66;5023560;28;20076;-75
2023/01/21 00:18:04;;;;;;;61.55;30.38;;;;;;;0.08;100.00;102135.53;5028182;28;20049;-73
2023/01/21 00:20:31;;;;;;;65.85;29.80;;;;;;;0.12;100.00;102139.28;5023140;28;20051;-73
2023/01/21 00:22:58;;;;;;;66.50;31.50;;;;;;;0.14;100.00;102146.06;5025542;28;20049;-74
2023/01/21 00:25:24;;;;;;;60.65;28.83;;;;;;;0.07;100.00;102139.34;5005999;28;20052;-73
2023/01/21 00:27:51;;;;;;;56.25;27.92;;;;;;;0.13;100.00;102149.88;5022479;28;20448;-74
2023/01/21 00:30:17;;;;;;;55.92;26.83;;;;;;;0.16;100.00;102162.91;5030428;28;20044;-73
2023/01/21 00:32:44;;;;;;;69.20;30.27;;;;;;;0.16;100.00;102164.81;5025165;28;20053;-75
2023/01/21 00:35:11;;;;;;;56.55;28.48;;;;;;;0.14;100.00;102173.28;5020514;28;20065;-73
2023/01/21 00:37:37;;;;;;;58.67;28.63;;;;;;;0.14;100.00;102175.19;5022312;28;20669;-73
2023/01/21 00:40:05;;;;;;;62.90;29.33;;;;;;;0.11;100.00;102182.03;5024989;28;20136;-74
2023/01/21 00:42:31;;;;;;;63.30;29.17;;;;;;;0.13;100.00;102189.91;5025879;28;20049;-73
2023/01/21 00:44:58;;;;;;;57.08;27.58;;;;;;;0.09;100.00;102178.00;5023243;28;20044;-73
2023/01/21 00:47:25;;;;;;;66.47;31.30;;;;;;;0.07;100.00;102186.44;5026953;28;20056;-73
2023/01/21 00:49:51;;;;;;;70.03;32.22;;;;;;;0.09;100.00;102188.88;5026790;28;20571;-73
2023/01/21 00:52:18;;;;;;;61.60;29.85;;;;;;;0.06;100.00;102192.19;5022681;28;20065;-75
2023/01/21 00:54:44;;;;;;;62.95;29.25;;;;;;;0.06;100.00;102187.53;5024154;28;21011;-73
2023/01/21 00:57:12;;;;;;;60.13;29.20;;;;;;;0.06;100.00;102194.91;5025492;28;20080;-75
2023/01/21 00:59:39;;;;;;;58.65;26.88;;;;;;;0.03;100.00;102190.81;5026770;28;20122;-72
2023/01/21 01:02:06;;;;;;;52.83;24.92;;;;;;;0.04;100.00;102198.69;5024625;28;20637;-72
2023/01/21 01:04:32;;;;;;;58.30;26.23;;;;;;;0.07;100.00;102210.13;5024386;28;20049;-72
2023/01/21 01:06:59;;;;;;;56.85;27.58;;;;;;;0.11;100.00;102213.88;5026936;28;20055;-72
2023/01/21 01:09:25;;;;;;;61.22;28.17;;;;;;;0.10;100.00;102214.97;5030063;28;20502;-72
2023/01/21 01:11:52;;;;;;;61.67;28.23;;;;;;;0.09;100.00;102216.88;5027691;28;20127;-74
2023/01/21 01:14:18;;;;;;;53.75;26.02;;;;;;;0.11;100.00;102222.03;5017260;28;20400;-73
2023/01/21 01:16:45;;;;;;;59.83;27.25;;;;;;;0.04;100.00;102209.59;5029804;28;20055;-72
2023/01/21 01:19:12;;;;;;;61.40;28.95;;;;;;;0.16;100.00;102233.66;5026424;28;20055;-72
2023/01/21 01:21:38;;;;;;;55.08;26.45;;;;;;;0.18;100.00;102238.81;5023820;28;20772;-72
2023/01/21 01:24:05;;;;;;;61.55;27.40;;;;;;;0.17;100.00;102239.94;5022706;28;20071;-72
2023/01/21 01:26:34;;;;;;;55.50;24.92;;;;;;;0.16;100.00;102244.56;5025755;28;20048;-74
2023/01/21 01:29:02;;;;;;;61.22;27.15;;;;;;;0.17;100.00;102248.09;5027465;28;20059;-73
2023/01/21 01:31:29;;;;;;;47.35;20.23;;;;;;;0.16;100.00;102249.22;5021212;28;20053;-74
2023/01/21 01:33:56;;;;;;;57.53;25.95;;;;;;;0.11;100.00;102243.81;5022961;28;20923;-75
2023/01/21 01:36:23;;;;;;;64.88;28.92;;;;;;;0.13;100.00;102256.03;5023729;28;20055;-75
2023/01/21 01:38:50;;;;;;;58.35;27.80;;;;;;;0.14;100.00;102246.78;5026836;28;20056;-72
2023/01/21 01:41:23;;;;;;;62.03;27.88;;;;;;;0.14;100.00;102243.22;5024496;28;20049;-72
2023/01/21 01:44:04;;;;;;;58.38;27.23;;;;;;;0.13;100.00;102247.06;5018146;28;20051;-74
2023/01/21 01:46:35;;;;;;;52.83;25.00;;;;;;;0.13;100.00;102260.69;5007178;28;20053;-74
2023/01/21 01:49:21;;;;;;;62.72;28.67;;;;;;;0.12;100.00;102267.19;5023181;28;20045;-73
2023/01/21 01:51:54;;;;;;;61.50;26.60;;;;;;;0.10;100.00;102263.97;5023744;28;20057;-74
2023/01/21 01:54:27;;;;;;;62.78;27.88;;;;;;;0.10;100.00;102269.41;5020897;28;20878;-74
2023/01/21 01:56:58;;;;;;;56.67;29.88;;;;;;;0.08;100.00;102260.72;5018323;28;20888;-74
2023/01/21 01:59:26;;;;;;;58.15;26.88;;;;;;;0.11;100.00;102268.31;5024553;28;20131;-75
2023/01/21 02:01:54;;;;;;;59.28;27.92;;;;;;;0.09;100.00;102273.25;5029259;28;20167;-74
2023/01/21 02:04:26;;;;;;;60.45;29.95;;;;;;;0.09;100.00;102275.97;5025672;28;20048;-74
2023/01/21 02:06:54;;;;;;;60.53;28.92;;;;;;;0.07;100.00;102278.16;5024303;28;20902;-75
2023/01/21 02:09:22;;;;;;;58.15;27.92;;;;;;;0.08;100.00;102277.03;5027763;28;20060;-74
2023/01/21 02:11:48;;;;;;;64.13;29.45;;;;;;;0.08;100.00;102277.03;5024888;28;20136;-74
2023/01/21 02:14:15;;;;;;;61.60;29.60;;;;;;;0.07;100.00;102278.97;5025598;28;20515;-73
2023/01/21 02:16:59;;;;;;;67.85;31.13;;;;;;;0.07;100.00;102292.59;5018675;28;20048;-73
2023/01/21 02:19:31;;;;;;;61.42;29.15;;;;;;;0.03;100.00;102297.78;5026315;28;20044;-75
2023/01/21 02:22:16;;;;;;;63.03;27.77;;;;;;;0.01;100.00;102305.41;5030115;28;20079;-74
2023/01/21 02:25:20;;;;;;;61.03;27.85;;;;;;;-0.03;100.00;102304.38;5018417;28;20623;-73
2023/01/21 02:28:24;;;;;;;58.08;26.63;;;;;;;-0.05;100.00;102311.22;5013181;28;20103;-74
2023/01/21 02:31:23;;;;;;;58.63;27.90;;;;;;;-0.06;100.00;102315.03;5019457;28;20048;-73
2023/01/21 02:34:11;;;;;;;61.25;29.17;;;;;;;-0.06;100.00;102312.31;5022778;28;20049;-74
2023/01/21 02:37:05;;;;;;;65.75;30.33;;;;;;;-0.09;100.00;102319.13;5005877;28;20041;-73
2023/01/21 02:39:43;;;;;;;61.13;29.88;;;;;;;-0.11;100.00;102321.34;5022495;28;20937;-74
2023/01/21 02:42:28;;;;;;;63.33;29.95;;;;;;;-0.14;100.00;102329.25;5026628;28;20415;-73
2023/01/21 02:45:00;;;;;;;63.47;30.27;;;;;;;-0.18;100.00;102323.59;5040005;28;20527;-73
2023/01/21 02:47:46;;;;;;;61.80;30.02;;;;;;;-0.23;100.00;102322.81;5047059;28;20048;-74
2023/01/21 02:50:32;;;;;;;60.08;29.13;;;;;;;-0.19;100.00;102324.69;5048282;28;20063;-72
2023/01/21 02:53:00;;;;;;;61.13;30.02;;;;;;;-0.21;100.00;102337.75;5049563;28;20426;-73
2023/01/21 02:55:34;;;;;;;63.22;29.58;;;;;;;-0.23;100.00;102342.66;5050473;28;20045;-72
2023/01/21 02:58:13;;;;;;;60.42;29.23;;;;;;;-0.27;100.00;102346.25;5049135;28;20132;-72
2023/01/21 03:00:56;;;;;;;62.58;28.85;;;;;;;-0.29;100.00;102351.97;5047993;28;20131;-72
2023/01/21 03:03:35;;;;;;;66.60;29.77;;;;;;;-0.32;100.00;102352.56;5049213;28;20717;-73
2023/01/21 03:06:17;;;;;;;67.35;31.13;;;;;;;-0.34;100.00;102357.44;5049565;28;20076;-73
2023/01/21 03:08:52;;;;;;;63.97;28.27;;;;;;;-0.34;100.00;102368.34;5032787;28;20051;-73
2023/01/21 03:11:21;;;;;;;63.92;29.38;;;;;;;-0.35;100.00;102374.88;5049632;28;20052;-73
2023/01/21 03:16:56;;;;;;;65.45;32.08;;;;;;;-0.38;100.00;102377.34;5049888;28;20127;-73
2023/01/21 03:19:31;;;;;;;64.85;30.58;;;;;;;-0.40;100.00;102379.56;5050617;28;20053;-72
2023/01/21 03:22:01;;;;;;;69.00;31.00;;;;;;;-0.45;100.00;102372.25;5049885;28;20041;-73
2023/01/21 03:24:28;;;;;;;68.38;30.75;;;;;;;-0.43;100.00;102377.41;5048261;28;20048;-73
2023/01/21 03:26:57;;;;;;;64.03;32.58;;;;;;;-0.44;100.00;102378.50;5050093;28;20507;-73
2023/01/21 03:29:28;;;;;;;67.13;30.83;;;;;;;-0.43;100.00;102382.84;5049464;28;20122;-73
2023/01/21 03:32:03;;;;;;;69.00;31.10;;;;;;;-0.47;100.00;102381.78;5042214;28;20116;-73
2023/01/21 03:34:35;;;;;;;66.50;31.10;;;;;;;-0.46;100.00;102395.09;5049028;28;20053;-73
2023/01/21 03:37:27;;;;;;;64.18;32.17;;;;;;;-0.50;100.00;102388.56;5049283;28;20048;-73
2023/01/21 03:40:17;;;;;;;59.33;27.65;;;;;;;-0.53;100.00;102391.06;5026263;28;20096;-72
2023/01/21 03:42:46;;;;;;;59.22;29.75;;;;;;;-0.56;100.00;102389.72;5023012;28;20053;-74
2023/01/21 03:45:13;;;;;;;59.72;29.27;;;;;;;-0.57;100.00;102390.81;5049484;28;20570;-72
2023/01/21 03:47:49;;;;;;;60.90;29.73;;;;;;;-0.57;100.00;102401.69;5049770;28;20063;-74
2023/01/21 03:50:22;;;;;;;59.70;30.25;;;;;;;-0.58;100.00;102396.53;5049626;28;20048;-73
2023/01/21 03:52:49;;;;;;;62.33;30.45;;;;;;;-0.67;100.00;102399.03;5047366;28;20052;-73
2023/01/21 03:55:16;;;;;;;62.33;29.52;;;;;;;-0.68;100.00;102400.13;5046780;28;20440;-72
2023/01/21 03:57:43;;;;;;;63.67;29.00;;;;;;;-0.69;100.00;102400.41;5049548;28;20513;-73
2023/01/21 04:00:10;;;;;;;61.97;28.92;;;;;;;-0.68;100.00;102393.88;5049214;28;20128;-73
2023/01/21 04:02:36;;;;;;;60.25;29.70;;;;;;;-0.68;100.00;102393.88;5048413;28;20057;-74
2023/01/21 04:05:03;;;;;;;64.78;28.98;;;;;;;-0.73;100.00;102394.75;5049317;28;20045;-74
2023/01/21 04:07:30;;;;;;;63.33;31.60;;;;;;;-0.75;100.00;102391.47;5048176;28;20119;-73
2023/01/21 04:09:56;;;;;;;63.17;31.42;;;;;;;-0.75;100.00;102394.19;5037631;28;20048;-73
2023/01/21 04:12:23;;;;;;;63.58;30.15;;;;;;;-0.76;100.00;102392.59;5049151;28;20055;-74
2023/01/21 04:14:49;;;;;;;71.55;32.75;;;;;;;-0.74;100.00;102406.69;5049467;28;20445;-75
2023/01/21 04:17:16;;;;;;;63.75;30.65;;;;;;;-0.75;100.00;102409.69;5049147;28;20033;-73
2023/01/21 04:19:42;;;;;;;67.82;30.90;;;;;;;-0.76;100.00;102402.63;5040769;28;20123;-73
2023/01/21 04:22:09;;;;;;;70.50;30.67;;;;;;;-0.83;100.00;102394.81;5047415;28;20048;-73
2023/01/21 04:24:35;;;;;;;67.50;31.80;;;;;;;-0.82;100.00;102403.75;5048509;28;20041;-72
2023/01/21 04:27:02;;;;;;;68.40;32.65;;;;;;;-0.83;100.00;102411.09;5047200;28;20040;-74
2023/01/21 04:29:28;;;;;;;63.88;29.77;;;;;;;-0.82;100.00;102414.63;5048755;28;20049;-73
2023/01/21 04:31:55;;;;;;;70.10;30.77;;;;;;;-0.86;100.00;102419.81;5049395;28;20098;-74
2023/01/21 04:34:21;;;;;;;65.10;30.23;;;;;;;-0.86;100.00;102419.00;5046457;28;20104;-73
2023/01/21 04:36:48;;;;;;;65.03;29.73;;;;;;;-0.91;100.00;102421.75;5049294;28;20051;-73
2023/01/21 04:39:14;;;;;;;64.38;30.60;;;;;;;-0.91;100.00;102419.81;5048762;28;20032;-73
2023/01/21 04:41:41;;;;;;;68.07;32.42;;;;;;;-0.90;100.00;102432.34;5048408;28;20049;-73
2023/01/21 04:44:07;;;;;;;64.95;31.33;;;;;;;-0.88;100.00;102423.91;5048546;28;20041;-74
2023/01/21 04:46:34;;;;;;;64.80;31.00;;;;;;;-0.88;100.00;102422.00;5045595;28;20041;-73
2023/01/21 04:49:00;;;;;;;66.32;31.88;;;;;;;-0.93;100.00;102416.59;5048134;28;20041;-73
2023/01/21 04:51:27;;;;;;;62.78;31.13;;;;;;;-0.94;100.00;102425.03;5048883;28;20186;-73
2023/01/21 04:53:53;;;;;;;60.60;28.55;;;;;;;-0.97;100.00;102431.84;5048061;28;20056;-74
2023/01/21 04:56:20;;;;;;;62.40;29.75;;;;;;;-0.96;100.00;102438.06;5048406;28;20045;-73
2023/01/21 04:58:46;;;;;;;64.90;31.17;;;;;;;-1.01;100.00;102436.19;5048496;28;20068;-73
2023/01/21 05:01:13;;;;;;;63.75;27.90;;;;;;;-1.05;100.00;102443.25;5045833;28;20127;-74
2023/01/21 05:03:39;;;;;;;67.53;31.35;;;;;;;-1.08;100.00;102451.19;5047678;28;20053;-72
2023/01/21 05:06:06;;;;;;;66.03;29.95;;;;;;;-1.10;100.00;102451.44;5027148;28;20049;-73
2023/01/21 05:08:32;;;;;;;73.13;33.30;;;;;;;-1.13;100.00;102452.00;5046479;28;20057;-73
2023/01/21 05:10:59;;;;;;;66.47;30.65;;;;;;;-1.10;100.00;102456.06;5047251;28;20495;-73
2023/01/21 05:13:25;;;;;;;67.43;31.90;;;;;;;-1.17;100.00;102456.38;5047020;28;20051;-73
2023/01/21 05:15:52;;;;;;;64.43;30.73;;;;;;;-1.23;100.00;102464.78;5047475;28;20049;-74
2023/01/21 05:18:19;;;;;;;65.97;30.55;;;;;;;-1.23;100.00;102468.34;5048007;28;20045;-73
2023/01/21 05:20:45;;;;;;;63.50;28.88;;;;;;;-1.26;100.00;102466.16;5047828;28;20415;-73
2023/01/21 05:23:12;;;;;;;67.93;29.27;;;;;;;-1.28;100.00;102473.75;5047127;28;20048;-72
2023/01/21 05:25:38;;;;;;;67.80;29.60;;;;;;;-1.31;100.00;102471.63;5044990;28;20141;-73
2023/01/21 05:28:05;;;;;;;66.82;30.98;;;;;;;-1.34;100.00;102482.22;5046990;28;20047;-74
2023/01/21 05:30:31;;;;;;;62.35;29.30;;;;;;;-1.34;100.00;102482.22;5047635;28;20418;-72
2023/01/21 05:32:58;;;;;;;64.63;29.27;;;;;;;-1.39;100.00;102479.53;5046434;28;20056;-72
2023/01/21 05:35:24;;;;;;;65.03;31.13;;;;;;;-1.40;100.00;102483.31;5047158;28;20060;-73
2023/01/21 05:37:51;;;;;;;59.28;27.95;;;;;;;-1.40;100.00;102491.44;5047233;28;20094;-73
2023/01/21 05:40:17;;;;;;;60.65;28.90;;;;;;;-1.42;100.00;102483.56;5046955;28;20542;-74
2023/01/21 05:42:45;;;;;;;63.05;30.20;;;;;;;-1.51;100.00;102485.25;5046740;28;20051;-73
2023/01/21 05:45:12;;;;;;;63.13;29.85;;;;;;;-1.49;100.00;102496.63;5029733;28;20059;-73
2023/01/21 05:47:38;;;;;;;65.15;30.30;;;;;;;-1.49;100.00;102496.63;5047146;28;20044;-72
2023/01/21 05:50:05;;;;;;;65.55;30.20;;;;;;;-1.46;100.00;102503.41;5045503;28;20078;-72
2023/01/21 05:52:32;;;;;;;64.90;31.65;;;;;;;-1.46;100.00;102501.50;5046943;28;20045;-73
2023/01/21 05:54:58;;;;;;;64.25;30.92;;;;;;;-1.44;100.00;102510.22;5046964;28;20049;-72
2023/01/21 05:57:28;;;;;;;59.97;29.98;;;;;;;-1.45;100.00;102503.13;5047532;28;20570;-74
2023/01/21 05:59:55;;;;;;;62.17;30.73;;;;;;;-1.41;100.00;102509.66;5045495;28;20059;-73
2023/01/21 06:02:21;;;;;;;62.13;30.48;;;;;;;-1.40;100.00;102519.44;5046954;28;20045;-73
2023/01/21 06:04:48;;;;;;;67.90;30.85;;;;;;;-1.43;100.00;102511.81;5047422;28;20056;-73
2023/01/21 06:07:15;;;;;;;64.18;28.65;;;;;;;-1.50;100.00;102516.72;5046982;28;20045;-73
2023/01/21 06:09:41;;;;;;;67.45;30.83;;;;;;;-1.56;100.00;102525.13;5045748;28;20537;-73
2023/01/21 06:12:08;;;;;;;60.42;29.40;;;;;;;-1.61;100.00;102520.56;5046620;28;20056;-73
2023/01/21 06:14:34;;;;;;;67.55;29.73;;;;;;;-1.58;100.00;102528.16;5046581;28;20049;-72
2023/01/21 06:17:01;;;;;;;68.90;31.20;;;;;;;-1.59;100.00;102529.22;5043452;28;20045;-73
2023/01/21 06:19:27;;;;;;;68.72;33.10;;;;;;;-1.58;100.00;102538.19;5026496;28;20595;-74
2023/01/21 06:21:54;;;;;;;68.25;32.75;;;;;;;-1.54;100.00;102534.66;5045145;28;20040;-73
2023/01/21 06:24:20;;;;;;;66.28;31.80;;;;;;;-1.53;100.00;102539.00;5044519;28;20041;-74
2023/01/21 06:26:47;;;;;;;69.30;31.40;;;;;;;-1.53;100.00;102549.84;5051536;28;20051;-73
2023/01/21 06:29:13;;;;;;;66.63;30.35;;;;;;;-1.60;100.00;102545.78;5050568;28;20063;-74
2023/01/21 06:31:40;;;;;;;72.63;31.58;;;;;;;-1.57;100.00;102553.38;5050745;28;20132;-73
2023/01/21 06:34:06;;;;;;;69.40;32.20;;;;;;;-1.60;100.00;102552.03;5045534;28;20087;-72
2023/01/21 06:36:33;;;;;;;67.22;31.15;;;;;;;-1.64;100.00;102553.66;5028083;28;20059;-72
2023/01/21 06:38:59;;;;;;;69.53;32.33;;;;;;;-1.70;100.00;102556.63;5051411;28;20045;-71
2023/01/21 06:41:26;;;;;;;68.10;32.20;;;;;;;-1.74;100.00;102561.81;5050168;28;20040;-74
2023/01/21 06:43:52;;;;;;;70.15;32.53;;;;;;;-1.76;100.00;102550.38;5049892;28;20041;-73
2023/01/21 06:46:19;;;;;;;66.20;30.30;;;;;;;-1.75;100.00;102562.91;5028998;28;20041;-74
2023/01/21 06:48:45;;;;;;;73.97;33.42;;;;;;;-1.75;100.00;102564.78;5049648;28;20379;-74
2023/01/21 06:51:12;;;;;;;71.60;33.63;;;;;;;-1.77;100.00;102565.06;5048800;28;20037;-73
2023/01/21 06:53:38;;;;;;;75.78;35.00;;;;;;;-1.77;100.00;102558.81;5047005;28;20179;-74
2023/01/21 06:56:05;;;;;;;75.45;33.25;;;;;;;-1.75;100.00;102571.03;5049393;28;20056;-74
2023/01/21 06:58:31;;;;;;;82.18;36.30;;;;;;;-1.68;100.00;102578.91;5050534;28;20041;-74
2023/01/21 07:00:58;;;;;;;82.03;36.30;;;;;;;-1.67;100.00;102575.91;5049591;28;20059;-73
2023/01/21 07:03:24;;;;;;;85.30;34.92;;;;;;;-1.67;100.00;102578.63;5049543;28;20095;-73
2023/01/21 07:05:51;;;;;;;88.88;36.35;;;;;;;-1.59;100.00;102578.06;5052059;28;20049;-73
2023/01/21 07:08:17;;;;;;;85.65;37.25;;;;;;;-1.57;100.00;102586.78;5050148;28;20045;-74
2023/01/21 07:10:44;;;;;;;93.43;38.70;;;;;;;-1.41;100.00;102593.00;5048833;28;20051;-76
2023/01/21 07:13:13;;;;;;;95.10;35.58;;;;;;;-1.34;100.00;102591.66;5048346;28;20722;-74
2023/01/21 07:15:39;;;;;;;102.78;40.63;;;;;;;-1.26;100.00;102604.69;5048514;28;20037;-74
2023/01/21 07:18:06;;;;;;;105.03;38.70;;;;;;;-1.17;100.00;102613.91;5049918;28;20455;-74
2023/01/21 07:20:32;;;;;;;100.43;42.00;;;;;;;-1.11;100.00;102615.53;5051941;28;20072;-74
2023/01/21 07:22:59;;;;;;;104.28;42.25;;;;;;;-1.04;100.00;102618.78;5049010;28;20045;-74
2023/01/21 07:25:26;;;;;;;91.30;39.67;;;;;;;-0.93;100.00;102617.69;5051491;28;20060;-76
2023/01/21 07:27:52;;;;;;;102.75;37.67;;;;;;;-0.86;100.00;102612.78;5050401;28;20115;-75
2023/01/21 07:30:20;;;;;;;98.50;38.53;;;;;;;-0.77;100.00;102624.69;5047564;28;20049;-75
2023/01/21 07:32:46;;;;;;;99.95;37.33;;;;;;;-0.70;100.00;102629.84;5051275;28;20124;-74
2023/01/21 07:35:13;;;;;;;105.43;39.83;;;;;;;-0.65;100.00;102627.13;5050991;28;20041;-75
2023/01/21 07:37:40;;;;;;;90.97;35.90;;;;;;;-0.61;100.00;102634.44;5055288;28;20158;-74
2023/01/21 07:40:07;;;;;;;91.75;36.28;;;;;;;-0.50;100.00;102638.75;5046217;28;20536;-76
2023/01/21 07:42:34;;;;;;;95.82;38.42;;;;;;;-0.45;100.00;102638.75;5047202;28;20606;-75
2023/01/21 07:45:02;;;;;;;112.40;42.00;;;;;;;-0.38;100.00;102642.00;5050481;28;20041;-74
2023/01/21 07:47:29;;;;;;;98.85;40.38;;;;;;;-0.32;100.00;102646.31;5050983;28;20041;-75
2023/01/21 07:49:55;;;;;;;90.45;37.10;;;;;;;-0.23;100.00;102639.19;5037630;28;20045;-75
2023/01/21 07:52:22;;;;;;;145.52;67.00;;;;;;;-0.19;100.00;102631.31;5047879;28;20063;-75
2023/01/21 07:54:48;;;;;;;161.82;79.05;;;;;;;-0.11;100.00;102647.03;5037392;28;20487;-73
2023/01/21 07:57:15;;;;;;;87.00;41.47;;;;;;;-0.09;100.00;102642.94;5050800;28;20041;-74
2023/01/21 07:59:41;;;;;;;105.43;47.40;;;;;;;-0.03;100.00;102649.97;5048416;28;20059;-75
2023/01/21 08:02:10;;;;;;;122.22;65.70;;;;;;;0.08;100.00;102652.66;5049730;28;20052;-74
2023/01/21 08:04:37;;;;;;;82.57;32.47;;;;;;;0.15;100.00;102661.31;5044950;28;20059;-76
2023/01/21 08:07:07;;;;;;;77.47;34.22;;;;;;;0.19;100.00;102657.75;5048598;28;20057;-73
2023/01/21 08:09:38;;;;;;;75.20;34.42;;;;;;;0.25;100.00;102664.81;5046455;28;20118;-75
2023/01/21 08:12:06;;;;;;;71.55;30.50;;;;;;;0.31;100.00;102665.59;5045191;28;20040;-74
2023/01/21 08:14:33;;;;;;;71.75;32.03;;;;;;;0.33;100.00;102663.41;5052527;28;20561;-75
2023/01/21 08:16:59;;;;;;;84.13;37.40;;;;;;;0.38;100.00;102672.38;5049867;28;20055;-75
2023/01/21 08:19:26;;;;;;;70.00;31.00;;;;;;;0.41;100.00;102674.53;5048023;28;20510;-75
2023/01/21 08:21:53;;;;;;;83.10;37.65;;;;;;;0.47;100.00;102676.09;5045502;28;20116;-75
2023/01/21 08:24:19;;;;;;;79.70;35.13;;;;;;;0.51;100.00;102676.34;5046872;28;20514;-75
2023/01/21 08:26:47;;;;;;;72.00;32.40;;;;;;;0.58;100.00;102674.13;5049753;28;20053;-76
2023/01/21 08:29:14;;;;;;;77.20;31.67;;;;;;;0.62;100.00;102680.63;5047899;28;20055;-73
2023/01/21 08:31:40;;;;;;;67.05;29.90;;;;;;;0.65;100.00;102680.06;5049729;28;20049;-74
2023/01/21 08:34:07;;;;;;;63.67;26.95;;;;;;;0.71;100.00;102681.66;5049197;28;20043;-74
2023/01/21 08:36:33;;;;;;;71.90;29.65;;;;;;;0.75;100.00;102680.81;5030493;28;20049;-74
2023/01/21 08:39:00;;;;;;;71.22;29.55;;;;;;;0.80;100.00;102688.13;5049645;28;20464;-76
2023/01/21 08:41:27;;;;;;;72.10;31.38;;;;;;;0.83;100.00;102688.38;5046896;28;20037;-74
2023/01/21 08:43:54;;;;;;;65.07;27.80;;;;;;;0.85;100.00;102690.81;5040861;28;20651;-76
2023/01/21 08:46:20;;;;;;;68.25;29.40;;;;;;;0.87;100.00;102681.25;5047255;28;20128;-74
2023/01/21 08:48:47;;;;;;;73.00;30.23;;;;;;;0.91;100.00;102692.41;5041061;28;20041;-75
2023/01/21 08:51:13;;;;;;;79.32;39.38;;;;;;;0.96;100.00;102700.53;5048915;28;20139;-75
2023/01/21 08:53:40;;;;;;;71.40;31.85;;;;;;;0.96;100.00;102706.00;5047021;28;20433;-75
2023/01/21 08:56:07;;;;;;;65.60;29.45;;;;;;;1.00;100.00;102704.31;5043661;28;20132;-74
2023/01/21 08:58:33;;;;;;;66.00;28.20;;;;;;;1.05;100.00;102707.81;5040863;28;20048;-75
2023/01/21 09:01:08;;;;;;;73.47;34.25;;;;;;;1.08;100.00;102712.69;5043339;28;20040;-76
2023/01/21 09:03:35;;;;;;;70.13;31.10;;;;;;;1.12;100.00;102710.22;5047949;28;20059;-76
2023/01/21 09:06:04;;;;;;;72.35;30.95;;;;;;;1.12;100.00;102713.78;5048116;28;20394;-76
2023/01/21 09:08:31;;;;;;;70.07;31.23;;;;;;;1.20;100.00;102709.59;5044993;28;20061;-75
2023/01/21 09:11:02;;;;;;;66.18;30.00;;;;;;;1.24;100.00;102716.91;5030130;28;20044;-76
2023/01/21 09:13:30;;;;;;;69.70;28.08;;;;;;;1.29;100.00;102716.88;5045309;28;20068;-75
2023/01/21 09:15:57;;;;;;;76.68;31.88;;;;;;;1.34;100.00;102726.91;5046855;28;20044;-74
2023/01/21 09:18:24;;;;;;;63.40;26.45;;;;;;;1.35;100.00;102718.44;5030177;28;20041;-75
2023/01/21 09:20:51;;;;;;;66.93;28.92;;;;;;;1.41;100.00;102724.66;5047698;28;20055;-77
2023/01/21 09:23:23;;;;;;;77.05;32.67;;;;;;;1.45;100.00;102728.47;5038652;28;20499;-75
2023/01/21 09:26:04;;;;;;;66.97;28.92;;;;;;;1.49;100.00;102737.69;5043813;28;20051;-75
2023/01/21 09:28:35;;;;;;;66.90;27.52;;;;;;;1.47;100.00;102740.72;5036900;28;20098;-75
2023/01/21 09:31:04;;;;;;;70.88;28.70;;;;;;;1.51;100.00;102727.28;5037818;28;20491;-74
2023/01/21 09:33:34;;;;;;;65.63;28.27;;;;;;;1.56;100.00;102741.72;5034849;28;20900;-75
2023/01/21 09:36:03;;;;;;;70.00;29.20;;;;;;;1.60;100.00;102740.03;5048116;28;20493;-74
2023/01/21 09:38:30;;;;;;;69.75;32.72;;;;;;;1.61;100.00;102746.28;5047792;28;20041;-74
2023/01/21 09:41:11;;;;;;;69.05;29.92;;;;;;;1.67;100.00;102754.16;5029106;28;20487;-75
2023/01/21 09:43:49;;;;;;;70.85;31.38;;;;;;;1.69;100.00;102757.38;5041966;28;20053;-75
2023/01/21 09:46:34;;;;;;;71.82;29.50;;;;;;;1.74;100.00;102751.06;5032055;28;20279;-75
2023/01/21 09:49:04;;;;;;;65.43;26.17;;;;;;;1.76;100.00;102757.06;5012515;28;20486;-74
2023/01/21 09:51:46;;;;;;;71.63;27.30;;;;;;;1.76;100.00;102757.84;5009210;28;20058;-75
2023/01/21 09:54:32;;;;;;;74.97;31.70;;;;;;;1.80;100.00;102763.56;5011244;28;20063;-75
2023/01/21 09:57:18;;;;;;;79.78;29.13;;;;;;;1.82;100.00;102767.63;5011148;28;20103;-72
2023/01/21 10:00:04;;;;;;;64.00;29.02;;;;;;;1.86;100.00;102773.34;5007676;28;20053;-74
2023/01/21 10:02:47;;;;;;;66.18;26.73;;;;;;;1.86;100.00;102770.59;5007420;28;20069;-73
2023/01/21 10:05:17;;;;;;;77.70;28.00;;;;;;;1.93;100.00;102780.06;5009830;28;20136;-74
2023/01/21 10:07:51;;;;;;;75.93;28.98;;;;;;;1.95;100.00;102777.03;5007391;28;20045;-74
2023/01/21 10:10:31;;;;;;;76.00;30.75;;;;;;;1.97;100.00;102785.78;5009379;28;20049;-75
2023/01/21 10:13:12;;;;;;;71.78;29.13;;;;;;;1.98;100.00;102779.19;5018216;28;20048;-74
2023/01/21 10:15:48;;;;;;;68.32;27.85;;;;;;;2.00;100.00;102777.00;5014452;28;20041;-73
2023/01/21 10:18:24;;;;;;;85.22;30.40;;;;;;;1.97;100.00;102777.56;5023900;28;20049;-73
2023/01/21 10:20:55;;;;;;;72.65;27.25;;;;;;;2.00;100.00;102785.97;5007716;28;20048;-73
2023/01/21 10:23:32;;;;;;;74.57;31.27;;;;;;;2.03;100.00;102787.34;5026475;28;20045;-73
2023/01/21 10:26:06;;;;;;;75.63;29.95;;;;;;;2.06;100.00;102786.78;5026286;28;20076;-73
2023/01/21 10:28:33;;;;;;;72.68;29.70;;;;;;;2.03;100.00;102779.16;5023745;28;20055;-74
2023/01/21 10:31:17;;;;;;;80.25;30.85;;;;;;;2.08;100.00;102779.09;5026311;28;20053;-75
2023/01/21 10:33:44;;;;;;;69.15;27.50;;;;;;;2.13;100.00;102787.22;5000868;28;20154;-74
2023/01/21 10:36:44;;;;;;;74.40;31.05;;;;;;;2.13;100.00;102784.50;5024270;28;20045;-74
2023/01/21 10:39:35;;;;;;;76.18;30.70;;;;;;;2.16;100.00;102776.53;5022534;28;20040;-73
2023/01/21 10:42:41;;;;;;;71.63;29.42;;;;;;;2.18;100.00;102778.97;5018392;28;20808;-72
2023/01/21 10:45:33;;;;;;;75.47;32.30;;;;;;;2.28;100.00;102776.94;5021431;28;20059;-75
2023/01/21 10:48:10;;;;;;;67.22;25.50;;;;;;;2.30;100.00;102784.84;5017667;28;20052;-76
2023/01/21 10:50:49;;;;;;;60.45;26.02;;;;;;;2.38;100.00;102778.72;5024688;28;20727;-75
2023/01/21 10:53:55;;;;;;;70.82;29.08;;;;;;;2.30;100.00;102762.97;5022901;28;20052;-75
2023/01/21 10:56:32;;;;;;;65.32;27.17;;;;;;;2.46;100.00;102783.53;5016597;28;20341;-76
2023/01/21 10:59:04;;;;;;;59.45;23.77;;;;;;;2.50;100.00;102779.13;5028015;28;20049;-75
2023/01/21 11:01:49;;;;;;;60.38;23.25;;;;;;;2.53;100.00;102773.03;5024382;28;20145;-75
2023/01/21 11:04:19;;;;;;;63.70;25.88;;;;;;;2.58;100.00;102773.81;5020146;28;20112;-74
2023/01/21 11:06:58;;;;;;;60.17;24.42;;;;;;;2.59;100.00;102771.88;5020441;28;20049;-74
2023/01/21 11:09:28;;;;;;;63.55;24.88;;;;;;;2.61;100.00;102778.66;5026776;28;20045;-73
2023/01/21 11:11:55;;;;;;;56.28;23.83;;;;;;;2.66;100.00;102780.50;5024158;28;20737;-73
2023/01/21 11:14:24;;;;;;;62.88;25.35;;;;;;;2.64;100.00;102769.09;5026672;28;20057;-74
2023/01/21 11:16:52;;;;;;;55.47;22.95;;;;;;;2.69;100.00;102767.09;5021731;28;20045;-76
2023/01/21 11:19:26;;;;;;;66.55;25.17;;;;;;;2.71;100.00;102767.59;5023869;28;20056;-74
2023/01/21 11:21:56;;;;;;;60.70;24.27;;;;;;;2.76;100.00;102774.13;5024466;28;20095;-77